sensor_id;sensor_type;location;lat;lon;timestamp;P1;durP1;ratioP1;P2;durP2;ratioP2
55364;SDS011;41245;45.384;20.390;2023-06-04T00:00:24;13.40;;;3.35;;
55364;SDS011;41245;45.384;20.390;2023-06-04T00:02:50;8.20;;;3.45;;
55364;SDS011;41245;45.384;20.390;2023-06-04T00:05:16;14.60;;;5.95;;
55364;SDS011;41245;45.384;20.390;2023-06-04T00:07:42;6.78;;;3.22;;
55364;SDS011;41245;45.384;20.390;2023-06-04T00:10:08;13.27;;;4.43;;
55364;SDS011;41245;45.384;20.390;2023-06-04T00:12:35;11.18;;;2.83;;
55364;SDS011;41245;45.384;20.390;2023-06-04T00:15:01;13.27;;;4.20;;
55364;SDS011;41245;45.384;20.390;2023-06-04T00:17:27;8.77;;;2.88;;
55364;SDS011;41245;45.384;20.390;2023-06-04T00:19:53;3.92;;;2.60;;
55364;SDS011;41245;45.384;20.390;2023-06-04T00:24:55;5.40;;;2.90;;
55364;SDS011;41245;45.384;20.390;2023-06-04T00:27:21;7.22;;;2.92;;
55364;SDS011;41245;45.384;20.390;2023-06-04T00:29:47;8.32;;;3.95;;
55364;SDS011;41245;45.384;20.390;2023-06-04T00:32:13;10.50;;;4.53;;
55364;SDS011;41245;45.384;20.390;2023-06-04T00:34:39;8.93;;;4.13;;
55364;SDS011;41245;45.384;20.390;2023-06-04T00:37:06;11.05;;;4.88;;
55364;SDS011;41245;45.384;20.390;2023-06-04T00:39:32;6.10;;;3.58;;
55364;SDS011;41245;45.384;20.390;2023-06-04T00:41:59;6.28;;;3.00;;
55364;SDS011;41245;45.384;20.390;2023-06-04T00:44:25;6.90;;;2.70;;
55364;SDS011;41245;45.384;20.390;2023-06-04T00:46:52;7.20;;;3.72;;
55364;SDS011;41245;45.384;20.390;2023-06-04T00:49:21;8.98;;;4.45;;
55364;SDS011;41245;45.384;20.390;2023-06-04T00:51:47;7.03;;;3.20;;
55364;SDS011;41245;45.384;20.390;2023-06-04T00:54:13;5.97;;;2.80;;
55364;SDS011;41245;45.384;20.390;2023-06-04T00:56:41;8.73;;;2.83;;
55364;SDS011;41245;45.384;20.390;2023-06-04T00:59:07;6.85;;;3.95;;
55364;SDS011;41245;45.384;20.390;2023-06-04T01:04:00;9.13;;;3.25;;
55364;SDS011;41245;45.384;20.390;2023-06-04T01:06:37;10.60;;;4.82;;
55364;SDS011;41245;45.384;20.390;2023-06-04T01:09:04;15.95;;;4.53;;
55364;SDS011;41245;45.384;20.390;2023-06-04T01:11:31;10.38;;;4.82;;
55364;SDS011;41245;45.384;20.390;2023-06-04T01:13:57;12.82;;;5.05;;
55364;SDS011;41245;45.384;20.390;2023-06-04T01:16:23;12.60;;;5.63;;
55364;SDS011;41245;45.384;20.390;2023-06-04T01:18:50;10.90;;;3.42;;
55364;SDS011;41245;45.384;20.390;2023-06-04T01:21:16;5.78;;;4.05;;
55364;SDS011;41245;45.384;20.390;2023-06-04T01:23:47;8.80;;;3.40;;
55364;SDS011;41245;45.384;20.390;2023-06-04T01:26:23;5.80;;;2.90;;
55364;SDS011;41245;45.384;20.390;2023-06-04T01:28:50;17.75;;;6.00;;
55364;SDS011;41245;45.384;20.390;2023-06-04T01:31:16;6.30;;;3.63;;
55364;SDS011;41245;45.384;20.390;2023-06-04T01:33:42;16.00;;;4.97;;
55364;SDS011;41245;45.384;20.390;2023-06-04T01:36:09;12.27;;;4.78;;
55364;SDS011;41245;45.384;20.390;2023-06-04T01:38:37;8.98;;;3.95;;
55364;SDS011;41245;45.384;20.390;2023-06-04T01:41:03;10.82;;;4.10;;
55364;SDS011;41245;45.384;20.390;2023-06-04T01:43:29;16.02;;;6.47;;
55364;SDS011;41245;45.384;20.390;2023-06-04T01:45:59;7.97;;;4.20;;
55364;SDS011;41245;45.384;20.390;2023-06-04T01:48:25;11.18;;;5.13;;
55364;SDS011;41245;45.384;20.390;2023-06-04T01:50:51;11.60;;;5.45;;
55364;SDS011;41245;45.384;20.390;2023-06-04T01:53:18;13.50;;;4.90;;
55364;SDS011;41245;45.384;20.390;2023-06-04T01:55:44;11.70;;;5.32;;
55364;SDS011;41245;45.384;20.390;2023-06-04T01:58:10;12.82;;;5.75;;
55364;SDS011;41245;45.384;20.390;2023-06-04T02:00:36;12.73;;;4.50;;
55364;SDS011;41245;45.384;20.390;2023-06-04T02:03:02;7.28;;;5.13;;
55364;SDS011;41245;45.384;20.390;2023-06-04T02:05:28;14.90;;;4.68;;
55364;SDS011;41245;45.384;20.390;2023-06-04T02:07:54;9.57;;;4.88;;
55364;SDS011;41245;45.384;20.390;2023-06-04T02:10:22;11.32;;;4.97;;
55364;SDS011;41245;45.384;20.390;2023-06-04T02:12:56;15.93;;;6.65;;
55364;SDS011;41245;45.384;20.390;2023-06-04T02:15:22;15.10;;;5.40;;
55364;SDS011;41245;45.384;20.390;2023-06-04T02:17:49;6.50;;;4.57;;
55364;SDS011;41245;45.384;20.390;2023-06-04T02:20:16;7.50;;;3.83;;
55364;SDS011;41245;45.384;20.390;2023-06-04T02:22:42;10.30;;;4.50;;
55364;SDS011;41245;45.384;20.390;2023-06-04T02:25:08;16.83;;;7.10;;
55364;SDS011;41245;45.384;20.390;2023-06-04T02:27:34;14.45;;;5.07;;
55364;SDS011;41245;45.384;20.390;2023-06-04T02:30:01;11.02;;;6.30;;
55364;SDS011;41245;45.384;20.390;2023-06-04T02:32:27;9.90;;;5.20;;
55364;SDS011;41245;45.384;20.390;2023-06-04T02:34:54;10.63;;;5.25;;
55364;SDS011;41245;45.384;20.390;2023-06-04T02:37:20;7.00;;;5.05;;
55364;SDS011;41245;45.384;20.390;2023-06-04T02:39:47;11.13;;;5.40;;
55364;SDS011;41245;45.384;20.390;2023-06-04T02:42:13;14.73;;;5.50;;
55364;SDS011;41245;45.384;20.390;2023-06-04T02:44:39;18.08;;;5.57;;
55364;SDS011;41245;45.384;20.390;2023-06-04T02:47:05;10.55;;;5.15;;
55364;SDS011;41245;45.384;20.390;2023-06-04T02:49:31;11.43;;;4.40;;
55364;SDS011;41245;45.384;20.390;2023-06-04T02:51:57;7.95;;;4.40;;
55364;SDS011;41245;45.384;20.390;2023-06-04T02:54:23;13.65;;;5.15;;
55364;SDS011;41245;45.384;20.390;2023-06-04T02:56:50;8.73;;;4.55;;
55364;SDS011;41245;45.384;20.390;2023-06-04T02:59:16;14.55;;;5.93;;
55364;SDS011;41245;45.384;20.390;2023-06-04T03:01:42;8.43;;;4.90;;
55364;SDS011;41245;45.384;20.390;2023-06-04T03:04:09;15.82;;;4.93;;
55364;SDS011;41245;45.384;20.390;2023-06-04T03:06:35;10.57;;;5.97;;
55364;SDS011;41245;45.384;20.390;2023-06-04T03:09:04;7.50;;;4.65;;
55364;SDS011;41245;45.384;20.390;2023-06-04T03:11:32;12.30;;;5.05;;
55364;SDS011;41245;45.384;20.390;2023-06-04T03:13:58;14.35;;;6.05;;
55364;SDS011;41245;45.384;20.390;2023-06-04T03:16:24;11.45;;;6.38;;
55364;SDS011;41245;45.384;20.390;2023-06-04T03:18:50;11.45;;;6.05;;
55364;SDS011;41245;45.384;20.390;2023-06-04T03:21:16;8.43;;;4.72;;
55364;SDS011;41245;45.384;20.390;2023-06-04T03:23:42;17.33;;;5.07;;
55364;SDS011;41245;45.384;20.390;2023-06-04T03:26:09;9.40;;;4.60;;
55364;SDS011;41245;45.384;20.390;2023-06-04T03:28:38;8.23;;;4.40;;
55364;SDS011;41245;45.384;20.390;2023-06-04T03:31:04;11.27;;;6.03;;
55364;SDS011;41245;45.384;20.390;2023-06-04T03:33:30;11.32;;;5.85;;
55364;SDS011;41245;45.384;20.390;2023-06-04T03:35:56;11.18;;;5.70;;
55364;SDS011;41245;45.384;20.390;2023-06-04T03:38:24;13.88;;;6.82;;
55364;SDS011;41245;45.384;20.390;2023-06-04T03:40:50;18.17;;;6.57;;
55364;SDS011;41245;45.384;20.390;2023-06-04T03:43:18;9.10;;;4.95;;
55364;SDS011;41245;45.384;20.390;2023-06-04T03:45:44;14.10;;;5.93;;
55364;SDS011;41245;45.384;20.390;2023-06-04T03:48:10;13.10;;;5.10;;
55364;SDS011;41245;45.384;20.390;2023-06-04T03:50:36;19.67;;;5.35;;
55364;SDS011;41245;45.384;20.390;2023-06-04T03:53:02;11.07;;;5.22;;
55364;SDS011;41245;45.384;20.390;2023-06-04T03:55:31;6.87;;;4.47;;
55364;SDS011;41245;45.384;20.390;2023-06-04T03:58:00;11.93;;;4.88;;
55364;SDS011;41245;45.384;20.390;2023-06-04T04:00:25;11.02;;;4.97;;
55364;SDS011;41245;45.384;20.390;2023-06-04T04:02:51;12.63;;;5.72;;
55364;SDS011;41245;45.384;20.390;2023-06-04T04:05:17;17.33;;;5.05;;
55364;SDS011;41245;45.384;20.390;2023-06-04T04:07:43;18.75;;;4.93;;
55364;SDS011;41245;45.384;20.390;2023-06-04T04:10:09;10.45;;;4.55;;
55364;SDS011;41245;45.384;20.390;2023-06-04T04:12:35;13.15;;;4.75;;
55364;SDS011;41245;45.384;20.390;2023-06-04T04:15:01;9.90;;;4.47;;
55364;SDS011;41245;45.384;20.390;2023-06-04T04:17:27;7.22;;;4.00;;
55364;SDS011;41245;45.384;20.390;2023-06-04T04:19:52;5.15;;;3.85;;
55364;SDS011;41245;45.384;20.390;2023-06-04T04:22:18;6.93;;;3.33;;
55364;SDS011;41245;45.384;20.390;2023-06-04T04:24:44;7.43;;;3.45;;
55364;SDS011;41245;45.384;20.390;2023-06-04T04:27:10;7.35;;;3.47;;
55364;SDS011;41245;45.384;20.390;2023-06-04T04:29:40;5.05;;;2.80;;
55364;SDS011;41245;45.384;20.390;2023-06-04T04:32:07;9.48;;;3.53;;
55364;SDS011;41245;45.384;20.390;2023-06-04T04:34:37;6.40;;;3.28;;
55364;SDS011;41245;45.384;20.390;2023-06-04T04:37:08;6.22;;;3.05;;
55364;SDS011;41245;45.384;20.390;2023-06-04T04:39:34;3.47;;;2.90;;
55364;SDS011;41245;45.384;20.390;2023-06-04T04:42:03;9.02;;;3.42;;
55364;SDS011;41245;45.384;20.390;2023-06-04T04:44:29;7.38;;;2.60;;
55364;SDS011;41245;45.384;20.390;2023-06-04T04:46:55;5.35;;;2.22;;
55364;SDS011;41245;45.384;20.390;2023-06-04T04:49:20;3.58;;;2.30;;
55364;SDS011;41245;45.384;20.390;2023-06-04T04:51:46;7.90;;;2.92;;
55364;SDS011;41245;45.384;20.390;2023-06-04T04:54:12;5.60;;;2.60;;
55364;SDS011;41245;45.384;20.390;2023-06-04T04:56:38;6.25;;;2.30;;
55364;SDS011;41245;45.384;20.390;2023-06-04T04:59:03;8.20;;;2.42;;
55364;SDS011;41245;45.384;20.390;2023-06-04T05:01:29;5.22;;;2.47;;
55364;SDS011;41245;45.384;20.390;2023-06-04T05:03:55;2.75;;;2.42;;
55364;SDS011;41245;45.384;20.390;2023-06-04T05:06:21;2.97;;;2.33;;
55364;SDS011;41245;45.384;20.390;2023-06-04T05:08:47;6.35;;;2.25;;
55364;SDS011;41245;45.384;20.390;2023-06-04T05:11:13;5.82;;;2.53;;
55364;SDS011;41245;45.384;20.390;2023-06-04T05:13:39;11.60;;;2.65;;
55364;SDS011;41245;45.384;20.390;2023-06-04T05:16:06;8.02;;;3.10;;
55364;SDS011;41245;45.384;20.390;2023-06-04T05:18:41;10.02;;;3.92;;
55364;SDS011;41245;45.384;20.390;2023-06-04T05:21:09;13.40;;;4.00;;
55364;SDS011;41245;45.384;20.390;2023-06-04T05:23:37;11.77;;;4.63;;
55364;SDS011;41245;45.384;20.390;2023-06-04T05:26:04;9.63;;;4.75;;
55364;SDS011;41245;45.384;20.390;2023-06-04T05:28:33;9.90;;;4.55;;
55364;SDS011;41245;45.384;20.390;2023-06-04T05:30:59;14.13;;;4.57;;
55364;SDS011;41245;45.384;20.390;2023-06-04T05:33:25;23.38;;;5.03;;
55364;SDS011;41245;45.384;20.390;2023-06-04T05:35:55;7.80;;;4.80;;
55364;SDS011;41245;45.384;20.390;2023-06-04T05:38:23;12.02;;;5.03;;
55364;SDS011;41245;45.384;20.390;2023-06-04T05:40:51;8.90;;;4.55;;
55364;SDS011;41245;45.384;20.390;2023-06-04T05:43:23;6.43;;;4.25;;
55364;SDS011;41245;45.384;20.390;2023-06-04T05:45:49;9.73;;;4.40;;
55364;SDS011;41245;45.384;20.390;2023-06-04T05:48:16;7.15;;;4.38;;
55364;SDS011;41245;45.384;20.390;2023-06-04T05:50:42;10.07;;;5.00;;
55364;SDS011;41245;45.384;20.390;2023-06-04T05:53:07;13.75;;;5.72;;
55364;SDS011;41245;45.384;20.390;2023-06-04T05:55:33;9.13;;;4.82;;
55364;SDS011;41245;45.384;20.390;2023-06-04T05:57:59;6.13;;;4.43;;
55364;SDS011;41245;45.384;20.390;2023-06-04T06:00:25;9.40;;;4.65;;
55364;SDS011;41245;45.384;20.390;2023-06-04T06:02:51;8.27;;;4.75;;
55364;SDS011;41245;45.384;20.390;2023-06-04T06:05:19;9.50;;;4.33;;
55364;SDS011;41245;45.384;20.390;2023-06-04T06:07:45;10.05;;;5.55;;
55364;SDS011;41245;45.384;20.390;2023-06-04T06:10:11;7.38;;;4.57;;
55364;SDS011;41245;45.384;20.390;2023-06-04T06:12:37;12.95;;;4.60;;
55364;SDS011;41245;45.384;20.390;2023-06-04T06:15:03;7.53;;;4.60;;
55364;SDS011;41245;45.384;20.390;2023-06-04T06:17:30;8.80;;;4.93;;
55364;SDS011;41245;45.384;20.390;2023-06-04T06:19:57;11.25;;;5.05;;
55364;SDS011;41245;45.384;20.390;2023-06-04T06:22:23;7.65;;;4.30;;
55364;SDS011;41245;45.384;20.390;2023-06-04T06:24:49;7.25;;;4.65;;
55364;SDS011;41245;45.384;20.390;2023-06-04T06:27:15;9.65;;;5.10;;
55364;SDS011;41245;45.384;20.390;2023-06-04T06:29:41;10.85;;;5.25;;
55364;SDS011;41245;45.384;20.390;2023-06-04T06:32:08;7.05;;;4.75;;
55364;SDS011;41245;45.384;20.390;2023-06-04T06:34:34;9.57;;;4.07;;
55364;SDS011;41245;45.384;20.390;2023-06-04T06:37:00;11.35;;;3.92;;
55364;SDS011;41245;45.384;20.390;2023-06-04T06:39:25;7.40;;;4.60;;
55364;SDS011;41245;45.384;20.390;2023-06-04T06:41:51;11.98;;;4.78;;
55364;SDS011;41245;45.384;20.390;2023-06-04T06:44:17;9.73;;;5.97;;
55364;SDS011;41245;45.384;20.390;2023-06-04T06:46:43;7.30;;;4.55;;
55364;SDS011;41245;45.384;20.390;2023-06-04T06:49:08;11.57;;;5.47;;
55364;SDS011;41245;45.384;20.390;2023-06-04T06:51:34;9.05;;;4.30;;
55364;SDS011;41245;45.384;20.390;2023-06-04T06:54:00;7.53;;;4.53;;
55364;SDS011;41245;45.384;20.390;2023-06-04T06:56:25;7.90;;;4.18;;
55364;SDS011;41245;45.384;20.390;2023-06-04T06:58:51;7.07;;;4.35;;
55364;SDS011;41245;45.384;20.390;2023-06-04T07:01:17;5.38;;;3.88;;
55364;SDS011;41245;45.384;20.390;2023-06-04T07:03:42;8.43;;;4.63;;
55364;SDS011;41245;45.384;20.390;2023-06-04T07:06:08;7.88;;;4.45;;
55364;SDS011;41245;45.384;20.390;2023-06-04T07:08:34;8.18;;;4.65;;
55364;SDS011;41245;45.384;20.390;2023-06-04T07:11:01;13.95;;;3.88;;
55364;SDS011;41245;45.384;20.390;2023-06-04T07:13:28;8.98;;;4.85;;
55364;SDS011;41245;45.384;20.390;2023-06-04T07:15:53;6.45;;;4.45;;
55364;SDS011;41245;45.384;20.390;2023-06-04T07:18:19;9.65;;;5.28;;
55364;SDS011;41245;45.384;20.390;2023-06-04T07:20:45;11.00;;;5.18;;
55364;SDS011;41245;45.384;20.390;2023-06-04T07:23:11;7.88;;;4.43;;
55364;SDS011;41245;45.384;20.390;2023-06-04T07:25:37;17.00;;;5.32;;
55364;SDS011;41245;45.384;20.390;2023-06-04T07:28:02;8.35;;;3.70;;
55364;SDS011;41245;45.384;20.390;2023-06-04T07:30:30;15.57;;;4.25;;
55364;SDS011;41245;45.384;20.390;2023-06-04T07:32:59;5.90;;;3.63;;
55364;SDS011;41245;45.384;20.390;2023-06-04T07:35:25;17.23;;;4.05;;
55364;SDS011;41245;45.384;20.390;2023-06-04T07:37:51;14.20;;;4.93;;
55364;SDS011;41245;45.384;20.390;2023-06-04T07:40:16;13.45;;;4.50;;
55364;SDS011;41245;45.384;20.390;2023-06-04T07:42:43;8.13;;;4.10;;
55364;SDS011;41245;45.384;20.390;2023-06-04T07:45:10;9.45;;;4.20;;
55364;SDS011;41245;45.384;20.390;2023-06-04T07:47:36;6.75;;;3.97;;
55364;SDS011;41245;45.384;20.390;2023-06-04T07:50:02;7.00;;;4.47;;
55364;SDS011;41245;45.384;20.390;2023-06-04T07:52:29;8.80;;;3.70;;
55364;SDS011;41245;45.384;20.390;2023-06-04T07:54:55;4.55;;;3.40;;
55364;SDS011;41245;45.384;20.390;2023-06-04T07:57:21;7.70;;;3.72;;
55364;SDS011;41245;45.384;20.390;2023-06-04T07:59:47;5.97;;;4.35;;
55364;SDS011;41245;45.384;20.390;2023-06-04T08:02:13;5.97;;;3.47;;
55364;SDS011;41245;45.384;20.390;2023-06-04T08:04:39;9.27;;;4.13;;
55364;SDS011;41245;45.384;20.390;2023-06-04T08:07:05;8.63;;;4.30;;
55364;SDS011;41245;45.384;20.390;2023-06-04T08:09:31;16.05;;;4.80;;
55364;SDS011;41245;45.384;20.390;2023-06-04T08:11:57;8.80;;;4.72;;
55364;SDS011;41245;45.384;20.390;2023-06-04T08:14:23;8.65;;;4.28;;
55364;SDS011;41245;45.384;20.390;2023-06-04T08:16:51;7.15;;;3.97;;
55364;SDS011;41245;45.384;20.390;2023-06-04T08:19:18;9.13;;;3.72;;
55364;SDS011;41245;45.384;20.390;2023-06-04T08:21:43;8.07;;;4.45;;
55364;SDS011;41245;45.384;20.390;2023-06-04T08:24:10;13.27;;;3.80;;
55364;SDS011;41245;45.384;20.390;2023-06-04T08:26:36;11.40;;;4.47;;
55364;SDS011;41245;45.384;20.390;2023-06-04T08:29:02;8.18;;;3.58;;
55364;SDS011;41245;45.384;20.390;2023-06-04T08:31:31;7.82;;;4.70;;
55364;SDS011;41245;45.384;20.390;2023-06-04T08:33:58;10.38;;;3.40;;
55364;SDS011;41245;45.384;20.390;2023-06-04T08:36:24;8.82;;;4.03;;
55364;SDS011;41245;45.384;20.390;2023-06-04T08:38:50;7.15;;;3.22;;
55364;SDS011;41245;45.384;20.390;2023-06-04T08:41:24;8.70;;;3.95;;
55364;SDS011;41245;45.384;20.390;2023-06-04T08:43:57;8.32;;;3.05;;
55364;SDS011;41245;45.384;20.390;2023-06-04T08:46:26;6.40;;;4.35;;
55364;SDS011;41245;45.384;20.390;2023-06-04T08:48:54;11.77;;;3.42;;
55364;SDS011;41245;45.384;20.390;2023-06-04T08:51:25;8.25;;;3.70;;
55364;SDS011;41245;45.384;20.390;2023-06-04T08:53:50;6.75;;;3.97;;
55364;SDS011;41245;45.384;20.390;2023-06-04T08:56:19;8.30;;;4.43;;
55364;SDS011;41245;45.384;20.390;2023-06-04T08:58:47;7.93;;;3.70;;
55364;SDS011;41245;45.384;20.390;2023-06-04T09:01:13;8.13;;;3.08;;
55364;SDS011;41245;45.384;20.390;2023-06-04T09:03:39;6.60;;;3.22;;
55364;SDS011;41245;45.384;20.390;2023-06-04T09:06:06;6.15;;;3.50;;
55364;SDS011;41245;45.384;20.390;2023-06-04T09:08:34;7.68;;;4.00;;
55364;SDS011;41245;45.384;20.390;2023-06-04T09:11:05;8.88;;;3.47;;
55364;SDS011;41245;45.384;20.390;2023-06-04T09:13:35;8.10;;;3.75;;
55364;SDS011;41245;45.384;20.390;2023-06-04T09:16:02;5.82;;;4.45;;
55364;SDS011;41245;45.384;20.390;2023-06-04T09:18:28;6.47;;;4.50;;
55364;SDS011;41245;45.384;20.390;2023-06-04T09:23:26;7.90;;;3.47;;
55364;SDS011;41245;45.384;20.390;2023-06-04T09:25:53;5.97;;;3.80;;
55364;SDS011;41245;45.384;20.390;2023-06-04T09:28:19;8.57;;;6.63;;
55364;SDS011;41245;45.384;20.390;2023-06-04T09:30:54;12.07;;;3.17;;
55364;SDS011;41245;45.384;20.390;2023-06-04T09:33:20;12.27;;;3.75;;
55364;SDS011;41245;45.384;20.390;2023-06-04T09:36:06;7.60;;;3.35;;
55364;SDS011;41245;45.384;20.390;2023-06-04T09:38:33;7.25;;;4.15;;
55364;SDS011;41245;45.384;20.390;2023-06-04T09:41:01;5.97;;;4.30;;
55364;SDS011;41245;45.384;20.390;2023-06-04T09:43:31;26.15;;;5.15;;
55364;SDS011;41245;45.384;20.390;2023-06-04T09:46:13;16.05;;;5.82;;
55364;SDS011;41245;45.384;20.390;2023-06-04T09:48:40;8.30;;;5.38;;
55364;SDS011;41245;45.384;20.390;2023-06-04T09:51:07;9.30;;;3.40;;
55364;SDS011;41245;45.384;20.390;2023-06-04T09:53:37;7.88;;;4.18;;
55364;SDS011;41245;45.384;20.390;2023-06-04T09:56:04;6.85;;;5.40;;
55364;SDS011;41245;45.384;20.390;2023-06-04T09:58:36;11.02;;;4.25;;
55364;SDS011;41245;45.384;20.390;2023-06-04T10:01:03;13.48;;;4.32;;
55364;SDS011;41245;45.384;20.390;2023-06-04T10:03:33;8.93;;;4.25;;
55364;SDS011;41245;45.384;20.390;2023-06-04T10:06:02;6.57;;;3.20;;
55364;SDS011;41245;45.384;20.390;2023-06-04T10:08:29;10.13;;;5.27;;
55364;SDS011;41245;45.384;20.390;2023-06-04T10:10:59;13.60;;;3.60;;
55364;SDS011;41245;45.384;20.390;2023-06-04T10:13:31;7.07;;;3.78;;
55364;SDS011;41245;45.384;20.390;2023-06-04T10:16:12;11.90;;;3.45;;
55364;SDS011;41245;45.384;20.390;2023-06-04T10:18:39;12.25;;;5.88;;
55364;SDS011;41245;45.384;20.390;2023-06-04T10:21:05;5.50;;;2.55;;
55364;SDS011;41245;45.384;20.390;2023-06-04T10:23:33;11.30;;;3.30;;
55364;SDS011;41245;45.384;20.390;2023-06-04T10:25:59;13.43;;;2.92;;
55364;SDS011;41245;45.384;20.390;2023-06-04T10:28:26;9.85;;;4.35;;
55364;SDS011;41245;45.384;20.390;2023-06-04T10:30:53;7.82;;;4.90;;
55364;SDS011;41245;45.384;20.390;2023-06-04T10:33:19;6.50;;;3.17;;
55364;SDS011;41245;45.384;20.390;2023-06-04T10:35:49;8.05;;;3.00;;
55364;SDS011;41245;45.384;20.390;2023-06-04T10:38:19;8.32;;;3.60;;
55364;SDS011;41245;45.384;20.390;2023-06-04T10:40:46;7.18;;;3.28;;
55364;SDS011;41245;45.384;20.390;2023-06-04T10:43:13;7.50;;;3.22;;
55364;SDS011;41245;45.384;20.390;2023-06-04T10:45:41;4.68;;;2.65;;
55364;SDS011;41245;45.384;20.390;2023-06-04T10:48:07;7.07;;;2.90;;
55364;SDS011;41245;45.384;20.390;2023-06-04T10:50:46;6.43;;;2.65;;
55364;SDS011;41245;45.384;20.390;2023-06-04T10:53:13;10.90;;;2.67;;
55364;SDS011;41245;45.384;20.390;2023-06-04T10:55:46;7.80;;;2.63;;
55364;SDS011;41245;45.384;20.390;2023-06-04T10:58:13;6.28;;;2.38;;
55364;SDS011;41245;45.384;20.390;2023-06-04T11:00:39;7.13;;;3.22;;
55364;SDS011;41245;45.384;20.390;2023-06-04T11:03:06;10.02;;;2.70;;
55364;SDS011;41245;45.384;20.390;2023-06-04T11:05:38;9.65;;;3.50;;
55364;SDS011;41245;45.384;20.390;2023-06-04T11:08:05;5.13;;;2.38;;
55364;SDS011;41245;45.384;20.390;2023-06-04T11:10:32;10.45;;;2.50;;
55364;SDS011;41245;45.384;20.390;2023-06-04T11:12:59;6.82;;;1.98;;
55364;SDS011;41245;45.384;20.390;2023-06-04T11:15:26;10.43;;;2.33;;
55364;SDS011;41245;45.384;20.390;2023-06-04T11:18:17;9.65;;;2.53;;
55364;SDS011;41245;45.384;20.390;2023-06-04T11:20:45;7.30;;;2.20;;
55364;SDS011;41245;45.384;20.390;2023-06-04T11:23:13;16.23;;;3.10;;
55364;SDS011;41245;45.384;20.390;2023-06-04T11:25:39;13.45;;;3.28;;
55364;SDS011;41245;45.384;20.390;2023-06-04T11:28:08;11.02;;;2.72;;
55364;SDS011;41245;45.384;20.390;2023-06-04T11:30:38;6.00;;;2.40;;
55364;SDS011;41245;45.384;20.390;2023-06-04T11:33:05;9.00;;;2.78;;
55364;SDS011;41245;45.384;20.390;2023-06-04T11:35:32;6.65;;;2.10;;
55364;SDS011;41245;45.384;20.390;2023-06-04T11:38:05;15.13;;;2.40;;
55364;SDS011;41245;45.384;20.390;2023-06-04T11:40:31;10.45;;;2.40;;
55364;SDS011;41245;45.384;20.390;2023-06-04T11:42:57;7.57;;;3.00;;
55364;SDS011;41245;45.384;20.390;2023-06-04T11:45:23;11.23;;;2.92;;
55364;SDS011;41245;45.384;20.390;2023-06-04T11:47:52;9.35;;;2.65;;
55364;SDS011;41245;45.384;20.390;2023-06-04T11:50:20;4.53;;;3.33;;
55364;SDS011;41245;45.384;20.390;2023-06-04T11:52:47;6.13;;;2.55;;
55364;SDS011;41245;45.384;20.390;2023-06-04T11:55:13;9.65;;;2.92;;
55364;SDS011;41245;45.384;20.390;2023-06-04T11:57:42;7.97;;;2.43;;
55364;SDS011;41245;45.384;20.390;2023-06-04T12:00:08;10.30;;;2.80;;
55364;SDS011;41245;45.384;20.390;2023-06-04T12:02:38;7.60;;;2.53;;
55364;SDS011;41245;45.384;20.390;2023-06-04T12:05:14;11.27;;;2.50;;
55364;SDS011;41245;45.384;20.390;2023-06-04T12:07:41;3.85;;;2.22;;
55364;SDS011;41245;45.384;20.390;2023-06-04T12:10:07;9.20;;;2.70;;
55364;SDS011;41245;45.384;20.390;2023-06-04T12:12:39;12.35;;;2.33;;
55364;SDS011;41245;45.384;20.390;2023-06-04T12:15:07;10.48;;;2.00;;
55364;SDS011;41245;45.384;20.390;2023-06-04T12:17:34;11.27;;;2.95;;
55364;SDS011;41245;45.384;20.390;2023-06-04T12:20:01;6.50;;;3.08;;
55364;SDS011;41245;45.384;20.390;2023-06-04T12:22:28;9.30;;;2.25;;
55364;SDS011;41245;45.384;20.390;2023-06-04T12:24:56;8.50;;;2.55;;
55364;SDS011;41245;45.384;20.390;2023-06-04T12:27:24;8.32;;;2.40;;
55364;SDS011;41245;45.384;20.390;2023-06-04T12:32:26;5.38;;;2.25;;
55364;SDS011;41245;45.384;20.390;2023-06-04T12:34:52;5.47;;;2.28;;
55364;SDS011;41245;45.384;20.390;2023-06-04T12:37:18;4.75;;;2.45;;
55364;SDS011;41245;45.384;20.390;2023-06-04T12:39:45;9.65;;;2.50;;
55364;SDS011;41245;45.384;20.390;2023-06-04T12:42:11;3.90;;;1.80;;
55364;SDS011;41245;45.384;20.390;2023-06-04T12:44:39;7.53;;;2.92;;
55364;SDS011;41245;45.384;20.390;2023-06-04T12:47:06;5.55;;;2.45;;
55364;SDS011;41245;45.384;20.390;2023-06-04T12:49:33;2.20;;;2.00;;
55364;SDS011;41245;45.384;20.390;2023-06-04T12:51:59;4.88;;;3.38;;
55364;SDS011;41245;45.384;20.390;2023-06-04T12:54:25;5.47;;;2.08;;
55364;SDS011;41245;45.384;20.390;2023-06-04T12:56:52;6.90;;;2.00;;
55364;SDS011;41245;45.384;20.390;2023-06-04T12:59:18;4.20;;;2.45;;
55364;SDS011;41245;45.384;20.390;2023-06-04T13:01:44;4.78;;;2.33;;
55364;SDS011;41245;45.384;20.390;2023-06-04T13:04:10;4.95;;;1.83;;
55364;SDS011;41245;45.384;20.390;2023-06-04T13:06:36;4.88;;;2.47;;
55364;SDS011;41245;45.384;20.390;2023-06-04T13:09:03;6.95;;;2.10;;
55364;SDS011;41245;45.384;20.390;2023-06-04T13:11:41;3.53;;;2.47;;
55364;SDS011;41245;45.384;20.390;2023-06-04T13:14:07;5.93;;;2.60;;
55364;SDS011;41245;45.384;20.390;2023-06-04T13:16:34;10.43;;;1.92;;
55364;SDS011;41245;45.384;20.390;2023-06-04T13:19:01;2.28;;;1.90;;
55364;SDS011;41245;45.384;20.390;2023-06-04T13:21:27;5.38;;;2.50;;
55364;SDS011;41245;45.384;20.390;2023-06-04T13:23:53;4.18;;;3.00;;
55364;SDS011;41245;45.384;20.390;2023-06-04T13:26:19;3.53;;;2.20;;
55364;SDS011;41245;45.384;20.390;2023-06-04T13:28:46;5.63;;;2.45;;
55364;SDS011;41245;45.384;20.390;2023-06-04T13:31:11;7.07;;;2.38;;
55364;SDS011;41245;45.384;20.390;2023-06-04T13:33:37;4.53;;;2.80;;
55364;SDS011;41245;45.384;20.390;2023-06-04T13:36:03;8.50;;;3.42;;
55364;SDS011;41245;45.384;20.390;2023-06-04T13:38:30;7.30;;;3.10;;
55364;SDS011;41245;45.384;20.390;2023-06-04T13:40:56;3.53;;;1.90;;
55364;SDS011;41245;45.384;20.390;2023-06-04T13:43:21;3.95;;;1.90;;
55364;SDS011;41245;45.384;20.390;2023-06-04T13:45:47;11.23;;;2.30;;
55364;SDS011;41245;45.384;20.390;2023-06-04T13:48:13;6.13;;;2.10;;
55364;SDS011;41245;45.384;20.390;2023-06-04T13:50:40;2.20;;;1.88;;
55364;SDS011;41245;45.384;20.390;2023-06-04T13:53:07;7.03;;;2.05;;
55364;SDS011;41245;45.384;20.390;2023-06-04T13:55:33;4.40;;;2.55;;
55364;SDS011;41245;45.384;20.390;2023-06-04T13:57:59;5.95;;;2.78;;
55364;SDS011;41245;45.384;20.390;2023-06-04T14:00:25;6.22;;;3.67;;
55364;SDS011;41245;45.384;20.390;2023-06-04T14:02:52;6.93;;;3.47;;
55364;SDS011;41245;45.384;20.390;2023-06-04T14:05:20;6.57;;;3.08;;
55364;SDS011;41245;45.384;20.390;2023-06-04T14:07:46;4.32;;;2.90;;
55364;SDS011;41245;45.384;20.390;2023-06-04T14:10:11;4.38;;;2.05;;
55364;SDS011;41245;45.384;20.390;2023-06-04T14:12:38;2.53;;;1.52;;
55364;SDS011;41245;45.384;20.390;2023-06-04T14:15:09;2.78;;;2.47;;
55364;SDS011;41245;45.384;20.390;2023-06-04T14:17:36;5.78;;;2.47;;
55364;SDS011;41245;45.384;20.390;2023-06-04T14:20:03;4.15;;;2.08;;
55364;SDS011;41245;45.384;20.390;2023-06-04T14:22:32;5.32;;;2.42;;
55364;SDS011;41245;45.384;20.390;2023-06-04T14:25:00;7.18;;;2.15;;
55364;SDS011;41245;45.384;20.390;2023-06-04T14:27:26;4.13;;;2.20;;
55364;SDS011;41245;45.384;20.390;2023-06-04T14:29:52;4.07;;;1.70;;
55364;SDS011;41245;45.384;20.390;2023-06-04T14:32:18;2.33;;;1.73;;
55364;SDS011;41245;45.384;20.390;2023-06-04T14:34:43;4.15;;;1.45;;
55364;SDS011;41245;45.384;20.390;2023-06-04T14:37:09;2.33;;;1.70;;
55364;SDS011;41245;45.384;20.390;2023-06-04T14:39:35;3.47;;;3.17;;